sensor_id;sensor_type;location;lat;lon;timestamp;pressure;altitude;pressure_sealevel;temperature;humidity
8298;BME280;4187;42.778;23.242;2023-02-28T00:00:25;95754.69;;;6.46;100.00
8298;BME280;4187;42.778;23.242;2023-02-28T00:02:52;95750.41;;;6.32;100.00
8298;BME280;4187;42.778;23.242;2023-02-28T00:05:20;95777.44;;;6.33;100.00
8298;BME280;4187;42.778;23.242;2023-02-28T00:07:48;95742.16;;;6.13;100.00
8298;BME280;4187;42.778;23.242;2023-02-28T00:10:17;95764.59;;;6.30;100.00
8298;BME280;4187;42.778;23.242;2023-02-28T00:12:46;95763.63;;;6.31;100.00
8298;BME280;4187;42.778;23.242;2023-02-28T00:15:14;95735.88;;;6.16;100.00
8298;BME280;4187;42.778;23.242;2023-02-28T00:17:41;95738.78;;;6.11;100.00
8298;BME280;4187;42.778;23.242;2023-02-28T00:20:10;95786.16;;;6.33;100.00
8298;BME280;4187;42.778;23.242;2023-02-28T00:22:38;95743.72;;;6.03;100.00
8298;BME280;4187;42.778;23.242;2023-02-28T00:25:07;95786.88;;;6.35;100.00
8298;BME280;4187;42.778;23.242;2023-02-28T00:27:35;95797.47;;;6.34;100.00
8298;BME280;4187;42.778;23.242;2023-02-28T00:30:03;95786.56;;;6.27;100.00
8298;BME280;4187;42.778;23.242;2023-02-28T00:32:32;95790.78;;;6.30;100.00
8298;BME280;4187;42.778;23.242;2023-02-28T00:34:59;95790.78;;;6.30;100.00
8298;BME280;4187;42.778;23.242;2023-02-28T00:37:26;95793.50;;;6.28;100.00
8298;BME280;4187;42.778;23.242;2023-02-28T00:39:53;95791.91;;;6.38;100.00
8298;BME280;4187;42.778;23.242;2023-02-28T00:42:20;95796.53;;;6.35;100.00
8298;BME280;4187;42.778;23.242;2023-02-28T00:44:47;95764.69;;;6.16;100.00
8298;BME280;4187;42.778;23.242;2023-02-28T00:47:14;95787.63;;;6.37;100.00
8298;BME280;4187;42.778;23.242;2023-02-28T00:49:42;95791.81;;;6.27;100.00
8298;BME280;4187;42.778;23.242;2023-02-28T00:52:10;95781.75;;;6.34;100.00
8298;BME280;4187;42.778;23.242;2023-02-28T00:54:36;95782.47;;;6.36;100.00
8298;BME280;4187;42.778;23.242;2023-02-28T00:57:03;95785.44;;;6.31;100.00
8298;BME280;4187;42.778;23.242;2023-02-28T00:59:30;95782.59;;;6.34;100.00
8298;BME280;4187;42.778;23.242;2023-02-28T01:01:57;95773.38;;;6.29;100.00
8298;BME280;4187;42.778;23.242;2023-02-28T01:04:24;95781.75;;;6.34;100.00
8298;BME280;4187;42.778;23.242;2023-02-28T01:06:52;95779.97;;;6.34;100.00
8298;BME280;4187;42.778;23.242;2023-02-28T01:09:19;95770.25;;;6.24;100.00
8298;BME280;4187;42.778;23.242;2023-02-28T01:11:46;95771.72;;;6.15;100.00
8298;BME280;4187;42.778;23.242;2023-02-28T01:14:14;95763.53;;;6.20;100.00
8298;BME280;4187;42.778;23.242;2023-02-28T01:16:42;95767.72;;;6.22;100.00
8298;BME280;4187;42.778;23.242;2023-02-28T01:19:09;95734.50;;;5.97;100.00
8298;BME280;4187;42.778;23.242;2023-02-28T01:21:36;95767.41;;;6.14;100.00
8298;BME280;4187;42.778;23.242;2023-02-28T01:24:05;95769.81;;;6.17;100.00
8298;BME280;4187;42.778;23.242;2023-02-28T01:26:32;95774.97;;;6.06;100.00
8298;BME280;4187;42.778;23.242;2023-02-28T01:28:59;95769.19;;;6.01;100.00
8298;BME280;4187;42.778;23.242;2023-02-28T01:31:26;95772.53;;;5.78;100.00
8298;BME280;4187;42.778;23.242;2023-02-28T01:33:53;95773.22;;;5.55;100.00
8298;BME280;4187;42.778;23.242;2023-02-28T01:36:21;95776.63;;;5.30;100.00
8298;BME280;4187;42.778;23.242;2023-02-28T01:38:49;95777.63;;;5.15;100.00
8298;BME280;4187;42.778;23.242;2023-02-28T01:41:20;95779.00;;;5.08;100.00
8298;BME280;4187;42.778;23.242;2023-02-28T01:43:59;95740.25;;;4.73;100.00
8298;BME280;4187;42.778;23.242;2023-02-28T01:46:28;95770.00;;;4.85;100.00
8298;BME280;4187;42.778;23.242;2023-02-28T01:49:00;95770.72;;;4.87;100.00
8298;BME280;4187;42.778;23.242;2023-02-28T01:51:33;95737.88;;;4.56;100.00
8298;BME280;4187;42.778;23.242;2023-02-28T01:54:02;95773.31;;;4.74;100.00
8298;BME280;4187;42.778;23.242;2023-02-28T01:56:35;95692.06;;;4.10;100.00
8298;BME280;4187;42.778;23.242;2023-02-28T01:59:03;95768.94;;;4.61;100.00
8298;BME280;4187;42.778;23.242;2023-02-28T02:01:30;95774.66;;;4.67;100.00
8298;BME280;4187;42.778;23.242;2023-02-28T02:03:59;95768.56;;;4.67;100.00
8298;BME280;4187;42.778;23.242;2023-02-28T02:06:30;95765.91;;;4.81;100.00
8298;BME280;4187;42.778;23.242;2023-02-28T02:09:00;95724.63;;;4.59;100.00
8298;BME280;4187;42.778;23.242;2023-02-28T02:11:28;95776.06;;;4.86;100.00
8298;BME280;4187;42.778;23.242;2023-02-28T02:14:20;95775.03;;;4.88;100.00
8298;BME280;4187;42.778;23.242;2023-02-28T02:17:04;95776.50;;;4.92;100.00
8298;BME280;4187;42.778;23.242;2023-02-28T02:19:52;95771.91;;;4.96;100.00
8298;BME280;4187;42.778;23.242;2023-02-28T02:25:25;95765.97;;;4.94;100.00
8298;BME280;4187;42.778;23.242;2023-02-28T02:28:04;95766.09;;;5.05;100.00
8298;BME280;4187;42.778;23.242;2023-02-28T02:30:57;95761.50;;;5.08;100.00
8298;BME280;4187;42.778;23.242;2023-02-28T02:33:44;95764.47;;;5.16;100.00
8298;BME280;4187;42.778;23.242;2023-02-28T02:36:22;95765.81;;;5.22;100.00
8298;BME280;4187;42.778;23.242;2023-02-28T02:38:53;95760.16;;;5.15;100.00
8298;BME280;4187;42.778;23.242;2023-02-28T02:41:28;95775.28;;;5.24;100.00
8298;BME280;4187;42.778;23.242;2023-02-28T02:44:02;95777.78;;;5.26;100.00
8298;BME280;4187;42.778;23.242;2023-02-28T02:46:34;95774.13;;;5.28;100.00
8298;BME280;4187;42.778;23.242;2023-02-28T02:49:04;95750.84;;;5.11;100.00
8298;BME280;4187;42.778;23.242;2023-02-28T02:51:34;95783.16;;;5.37;100.00
8298;BME280;4187;42.778;23.242;2023-02-28T02:54:06;95784.00;;;5.37;100.00
8298;BME280;4187;42.778;23.242;2023-02-28T02:56:36;95780.41;;;5.38;100.00
8298;BME280;4187;42.778;23.242;2023-02-28T02:59:09;95758.31;;;5.30;100.00
8298;BME280;4187;42.778;23.242;2023-02-28T03:01:39;95780.22;;;5.41;100.00
8298;BME280;4187;42.778;23.242;2023-02-28T03:04:11;95764.38;;;5.30;100.00
8298;BME280;4187;42.778;23.242;2023-02-28T03:06:41;95784.38;;;5.31;100.00
8298;BME280;4187;42.778;23.242;2023-02-28T03:09:07;95783.00;;;5.26;100.00
8298;BME280;4187;42.778;23.242;2023-02-28T03:11:35;95782.41;;;5.35;100.00
8298;BME280;4187;42.778;23.242;2023-02-28T03:14:20;95761.03;;;5.28;100.00
8298;BME280;4187;42.778;23.242;2023-02-28T03:17:14;95790.50;;;5.44;100.00
8298;BME280;4187;42.778;23.242;2023-02-28T03:19:50;95792.47;;;5.41;100.00
8298;BME280;4187;42.778;23.242;2023-02-28T03:22:34;95802.13;;;5.40;100.00
8298;BME280;4187;42.778;23.242;2023-02-28T03:25:07;95795.91;;;5.41;100.00
8298;BME280;4187;42.778;23.242;2023-02-28T03:27:40;95809.34;;;5.50;100.00
8298;BME280;4187;42.778;23.242;2023-02-28T03:30:13;95805.53;;;5.41;100.00
8298;BME280;4187;42.778;23.242;2023-02-28T03:32:49;95821.50;;;5.51;100.00
8298;BME280;4187;42.778;23.242;2023-02-28T03:35:21;95823.28;;;5.50;100.00
8298;BME280;4187;42.778;23.242;2023-02-28T03:37:53;95821.84;;;5.59;100.00
8298;BME280;4187;42.778;23.242;2023-02-28T03:40:25;95832.00;;;5.63;100.00
8298;BME280;4187;42.778;23.242;2023-02-28T03:42:58;95835.66;;;5.61;100.00
8298;BME280;4187;42.778;23.242;2023-02-28T03:45:30;95840.56;;;5.65;100.00
8298;BME280;4187;42.778;23.242;2023-02-28T03:48:02;95812.28;;;5.58;100.00
8298;BME280;4187;42.778;23.242;2023-02-28T03:50:35;95823.53;;;5.72;100.00
8298;BME280;4187;42.778;23.242;2023-02-28T03:53:10;95816.19;;;5.65;100.00
8298;BME280;4187;42.778;23.242;2023-02-28T03:55:41;95833.28;;;5.70;100.00
8298;BME280;4187;42.778;23.242;2023-02-28T03:58:14;95828.72;;;5.86;100.00
8298;BME280;4187;42.778;23.242;2023-02-28T04:00:45;95833.38;;;5.81;100.00
8298;BME280;4187;42.778;23.242;2023-02-28T04:03:13;95832.13;;;5.74;100.00
8298;BME280;4187;42.778;23.242;2023-02-28T04:05:50;95831.19;;;5.75;100.00
8298;BME280;4187;42.778;23.242;2023-02-28T04:08:19;95827.94;;;5.72;100.00
8298;BME280;4187;42.778;23.242;2023-02-28T04:10:52;95834.09;;;5.71;100.00
8298;BME280;4187;42.778;23.242;2023-02-28T04:13:20;95838.28;;;5.73;100.00
8298;BME280;4187;42.778;23.242;2023-02-28T04:15:47;95843.25;;;5.78;100.00
8298;BME280;4187;42.778;23.242;2023-02-28T04:18:14;95840.50;;;5.79;100.00
8298;BME280;4187;42.778;23.242;2023-02-28T04:20:41;95845.47;;;5.84;100.00
8298;BME280;4187;42.778;23.242;2023-02-28T04:23:08;95846.09;;;5.87;100.00
8298;BME280;4187;42.778;23.242;2023-02-28T04:25:36;95851.66;;;5.95;100.00
8298;BME280;4187;42.778;23.242;2023-02-28T04:28:05;95824.22;;;5.88;100.00
8298;BME280;4187;42.778;23.242;2023-02-28T04:30:32;95841.72;;;6.00;100.00
8298;BME280;4187;42.778;23.242;2023-02-28T04:33:00;95850.00;;;6.07;100.00
8298;BME280;4187;42.778;23.242;2023-02-28T04:35:27;95838.59;;;6.08;100.00
8298;BME280;4187;42.778;23.242;2023-02-28T04:37:54;95836.78;;;6.09;100.00
8298;BME280;4187;42.778;23.242;2023-02-28T04:40:21;95843.09;;;6.19;100.00
8298;BME280;4187;42.778;23.242;2023-02-28T04:42:49;95843.09;;;6.19;100.00
8298;BME280;4187;42.778;23.242;2023-02-28T04:45:16;95843.72;;;6.22;100.00
8298;BME280;4187;42.778;23.242;2023-02-28T04:47:43;95849.38;;;6.29;100.00
8298;BME280;4187;42.778;23.242;2023-02-28T04:50:10;95846.84;;;6.27;100.00
8298;BME280;4187;42.778;23.242;2023-02-28T04:52:37;95848.75;;;6.25;100.00
8298;BME280;4187;42.778;23.242;2023-02-28T04:55:05;95850.66;;;6.23;100.00
8298;BME280;4187;42.778;23.242;2023-02-28T04:57:32;95859.56;;;6.21;100.00
8298;BME280;4187;42.778;23.242;2023-02-28T05:00:00;95849.72;;;6.24;100.00
8298;BME280;4187;42.778;23.242;2023-02-28T05:02:30;95864.38;;;6.27;100.00
8298;BME280;4187;42.778;23.242;2023-02-28T05:04:56;95808.59;;;5.87;100.00
8298;BME280;4187;42.778;23.242;2023-02-28T05:07:23;95863.94;;;6.20;100.00
8298;BME280;4187;42.778;23.242;2023-02-28T05:09:50;95864.06;;;6.19;100.00
8298;BME280;4187;42.778;23.242;2023-02-28T05:12:17;95835.66;;;6.00;100.00
8298;BME280;4187;42.778;23.242;2023-02-28T05:14:44;95859.44;;;6.10;100.00
8298;BME280;4187;42.778;23.242;2023-02-28T05:17:12;95862.06;;;6.10;100.00
8298;BME280;4187;42.778;23.242;2023-02-28T05:19:39;95866.44;;;6.09;100.00
8298;BME280;4187;42.778;23.242;2023-02-28T05:22:13;95871.28;;;6.03;100.00
8298;BME280;4187;42.778;23.242;2023-02-28T05:24:39;95870.00;;;5.95;100.00
8298;BME280;4187;42.778;23.242;2023-02-28T05:27:07;95878.59;;;5.97;100.00
8298;BME280;4187;42.778;23.242;2023-02-28T05:29:34;95854.31;;;5.81;100.00
8298;BME280;4187;42.778;23.242;2023-02-28T05:32:09;95882.69;;;6.01;100.00
8298;BME280;4187;42.778;23.242;2023-02-28T05:34:38;95880.06;;;6.01;100.00
8298;BME280;4187;42.778;23.242;2023-02-28T05:37:06;95857.91;;;5.80;100.00
8298;BME280;4187;42.778;23.242;2023-02-28T05:39:33;95882.38;;;5.93;100.00
8298;BME280;4187;42.778;23.242;2023-02-28T05:42:00;95890.69;;;6.00;100.00
8298;BME280;4187;42.778;23.242;2023-02-28T05:44:26;95895.06;;;5.99;100.00
8298;BME280;4187;42.778;23.242;2023-02-28T05:46:53;95901.56;;;6.07;100.00
8298;BME280;4187;42.778;23.242;2023-02-28T05:49:20;95896.25;;;6.21;100.00
8298;BME280;4187;42.778;23.242;2023-02-28T05:51:48;95893.53;;;6.35;100.00
8298;BME280;4187;42.778;23.242;2023-02-28T05:54:15;95890.59;;;6.39;100.00
8298;BME280;4187;42.778;23.242;2023-02-28T05:56:42;95896.03;;;6.49;100.00
8298;BME280;4187;42.778;23.242;2023-02-28T05:59:11;95899.81;;;6.57;100.00
8298;BME280;4187;42.778;23.242;2023-02-28T06:01:39;95902.53;;;6.69;100.00
8298;BME280;4187;42.778;23.242;2023-02-28T06:04:08;95901.91;;;6.78;100.00
8298;BME280;4187;42.778;23.242;2023-02-28T06:06:36;95910.16;;;6.84;100.00
8298;BME280;4187;42.778;23.242;2023-02-28T06:09:04;95906.50;;;6.87;100.00
8298;BME280;4187;42.778;23.242;2023-02-28T06:11:31;95891.72;;;6.73;100.00
8298;BME280;4187;42.778;23.242;2023-02-28T06:13:59;95908.19;;;6.88;100.00
8298;BME280;4187;42.778;23.242;2023-02-28T06:16:27;95915.41;;;6.97;100.00
8298;BME280;4187;42.778;23.242;2023-02-28T06:18:54;95917.59;;;7.03;100.00
8298;BME280;4187;42.778;23.242;2023-02-28T06:21:22;95911.91;;;7.09;100.00
8298;BME280;4187;42.778;23.242;2023-02-28T06:23:49;95921.25;;;7.13;100.00
8298;BME280;4187;42.778;23.242;2023-02-28T06:26:17;95907.72;;;7.06;100.00
8298;BME280;4187;42.778;23.242;2023-02-28T06:28:44;95917.59;;;7.15;100.00
8298;BME280;4187;42.778;23.242;2023-02-28T06:31:12;95915.34;;;7.22;100.00
8298;BME280;4187;42.778;23.242;2023-02-28T06:33:40;95921.13;;;7.27;100.00
8298;BME280;4187;42.778;23.242;2023-02-28T06:36:08;95922.44;;;7.33;100.00
8298;BME280;4187;42.778;23.242;2023-02-28T06:38:36;95919.72;;;7.34;100.00
8298;BME280;4187;42.778;23.242;2023-02-28T06:41:03;95904.19;;;7.31;100.00
8298;BME280;4187;42.778;23.242;2023-02-28T06:43:34;95923.28;;;7.46;100.00
8298;BME280;4187;42.778;23.242;2023-02-28T06:46:06;95933.16;;;7.42;100.00
8298;BME280;4187;42.778;23.242;2023-02-28T06:48:34;95929.06;;;7.38;100.00
8298;BME280;4187;42.778;23.242;2023-02-28T06:51:02;95930.03;;;7.37;100.00
8298;BME280;4187;42.778;23.242;2023-02-28T06:53:29;95918.16;;;7.32;100.00
8298;BME280;4187;42.778;23.242;2023-02-28T06:55:56;95931.09;;;7.35;100.00
8298;BME280;4187;42.778;23.242;2023-02-28T06:58:23;95927.78;;;7.44;100.00
8298;BME280;4187;42.778;23.242;2023-02-28T07:00:52;95923.38;;;7.44;100.00
8298;BME280;4187;42.778;23.242;2023-02-28T07:03:19;95930.47;;;7.55;100.00
8298;BME280;4187;42.778;23.242;2023-02-28T07:05:46;95935.63;;;7.56;100.00
8298;BME280;4187;42.778;23.242;2023-02-28T07:08:13;95944.09;;;7.60;100.00
8298;BME280;4187;42.778;23.242;2023-02-28T07:10:40;95927.25;;;7.51;100.00
8298;BME280;4187;42.778;23.242;2023-02-28T07:13:08;95936.13;;;7.61;100.00
8298;BME280;4187;42.778;23.242;2023-02-28T07:15:35;95937.47;;;7.67;100.00
8298;BME280;4187;42.778;23.242;2023-02-28T07:18:04;95935.78;;;7.66;100.00
8298;BME280;4187;42.778;23.242;2023-02-28T07:20:30;95936.41;;;7.69;100.00
8298;BME280;4187;42.778;23.242;2023-02-28T07:22:57;95913.38;;;7.49;100.00
8298;BME280;4187;42.778;23.242;2023-02-28T07:25:26;95940.47;;;7.73;100.00
8298;BME280;4187;42.778;23.242;2023-02-28T07:27:53;95937.41;;;7.79;100.00
8298;BME280;4187;42.778;23.242;2023-02-28T07:30:20;95928.47;;;7.82;100.00
8298;BME280;4187;42.778;23.242;2023-02-28T07:32:47;95886.81;;;7.41;100.00
8298;BME280;4187;42.778;23.242;2023-02-28T07:35:16;95923.22;;;7.58;100.00
8298;BME280;4187;42.778;23.242;2023-02-28T07:37:42;95920.03;;;7.66;100.00
8298;BME280;4187;42.778;23.242;2023-02-28T07:40:11;95769.19;;;6.62;100.00
8298;BME280;4187;42.778;23.242;2023-02-28T07:42:39;95935.06;;;7.64;100.00
8298;BME280;4187;42.778;23.242;2023-02-28T07:45:07;95930.31;;;7.45;100.00
8298;BME280;4187;42.778;23.242;2023-02-28T07:47:37;95935.16;;;7.39;100.00
8298;BME280;4187;42.778;23.242;2023-02-28T07:50:04;95933.88;;;7.44;100.00
8298;BME280;4187;42.778;23.242;2023-02-28T07:52:32;95940.13;;;7.54;100.00
8298;BME280;4187;42.778;23.242;2023-02-28T07:54:59;95927.28;;;7.62;100.00
8298;BME280;4187;42.778;23.242;2023-02-28T07:57:26;95926.84;;;7.68;100.00
8298;BME280;4187;42.778;23.242;2023-02-28T07:59:53;95944.44;;;7.79;100.00
8298;BME280;4187;42.778;23.242;2023-02-28T08:02:20;95925.75;;;7.83;100.00
8298;BME280;4187;42.778;23.242;2023-02-28T08:04:47;95926.03;;;7.92;100.00
8298;BME280;4187;42.778;23.242;2023-02-28T08:07:14;95932.97;;;8.04;100.00
8298;BME280;4187;42.778;23.242;2023-02-28T08:09:43;95928.72;;;8.14;100.00
8298;BME280;4187;42.778;23.242;2023-02-28T08:12:11;95933.53;;;8.20;100.00
8298;BME280;4187;42.778;23.242;2023-02-28T08:14:38;95941.25;;;8.34;100.00
8298;BME280;4187;42.778;23.242;2023-02-28T08:17:06;95903.03;;;8.17;100.00
8298;BME280;4187;42.778;23.242;2023-02-28T08:19:33;95939.72;;;8.43;100.00
8298;BME280;4187;42.778;23.242;2023-02-28T08:22:00;95936.13;;;8.43;100.00
8298;BME280;4187;42.778;23.242;2023-02-28T08:24:27;95944.41;;;8.50;100.00
8298;BME280;4187;42.778;23.242;2023-02-28T08:26:55;95917.72;;;8.43;100.00
8298;BME280;4187;42.778;23.242;2023-02-28T08:29:22;95939.78;;;8.65;100.00
8298;BME280;4187;42.778;23.242;2023-02-28T08:31:49;95940.50;;;8.67;100.00
8298;BME280;4187;42.778;23.242;2023-02-28T08:34:16;95946.94;;;8.74;100.00
8298;BME280;4187;42.778;23.242;2023-02-28T08:36:43;95942.78;;;8.82;100.00
8298;BME280;4187;42.778;23.242;2023-02-28T08:39:12;95926.88;;;8.84;100.00
8298;BME280;4187;42.778;23.242;2023-02-28T08:41:38;95934.19;;;8.80;100.00
8298;BME280;4187;42.778;23.242;2023-02-28T08:44:07;95935.97;;;8.91;100.00
8298;BME280;4187;42.778;23.242;2023-02-28T08:46:34;95899.00;;;8.70;100.00
8298;BME280;4187;42.778;23.242;2023-02-28T08:49:01;95935.84;;;8.92;100.00
8298;BME280;4187;42.778;23.242;2023-02-28T08:51:29;95931.88;;;8.87;100.00
8298;BME280;4187;42.778;23.242;2023-02-28T08:53:58;95940.53;;;9.87;100.00
8298;BME280;4187;42.778;23.242;2023-02-28T08:56:25;95940.78;;;10.27;100.00
8298;BME280;4187;42.778;23.242;2023-02-28T08:58:54;95935.75;;;10.24;100.00
8298;BME280;4187;42.778;23.242;2023-02-28T09:01:24;95930.53;;;10.02;100.00
8298;BME280;4187;42.778;23.242;2023-02-28T09:03:52;95945.91;;;9.97;100.00
8298;BME280;4187;42.778;23.242;2023-02-28T09:06:22;95939.69;;;9.87;100.00
8298;BME280;4187;42.778;23.242;2023-02-28T09:08:49;95937.19;;;9.85;100.00
8298;BME280;4187;42.778;23.242;2023-02-28T09:11:16;95937.56;;;9.81;100.00
8298;BME280;4187;42.778;23.242;2023-02-28T09:13:45;95941.63;;;9.74;100.00
8298;BME280;4187;42.778;23.242;2023-02-28T09:16:13;95938.06;;;9.75;100.00
8298;BME280;4187;42.778;23.242;2023-02-28T09:18:43;95927.38;;;9.76;100.00
8298;BME280;4187;42.778;23.242;2023-02-28T09:21:12;95932.84;;;9.84;100.00
8298;BME280;4187;42.778;23.242;2023-02-28T09:23:40;95937.78;;;9.89;100.00
8298;BME280;4187;42.778;23.242;2023-02-28T09:26:07;95906.78;;;9.81;100.00
8298;BME280;4187;42.778;23.242;2023-02-28T09:28:34;95933.41;;;9.99;100.00
8298;BME280;4187;42.778;23.242;2023-02-28T09:31:01;95928.59;;;10.04;100.00
8298;BME280;4187;42.778;23.242;2023-02-28T09:33:30;95929.06;;;10.09;100.00
8298;BME280;4187;42.778;23.242;2023-02-28T09:36:00;95916.13;;;10.17;100.00
8298;BME280;4187;42.778;23.242;2023-02-28T09:38:27;95935.50;;;10.27;100.00
8298;BME280;4187;42.778;23.242;2023-02-28T09:40:57;95924.38;;;10.24;100.00
8298;BME280;4187;42.778;23.242;2023-02-28T09:43:27;95925.72;;;10.39;100.00
8298;BME280;4187;42.778;23.242;2023-02-28T09:46:00;95915.56;;;10.55;100.00
8298;BME280;4187;42.778;23.242;2023-02-28T09:48:32;95919.13;;;10.65;100.00
8298;BME280;4187;42.778;23.242;2023-02-28T09:51:05;95914.09;;;10.62;100.00
8298;BME280;4187;42.778;23.242;2023-02-28T09:53:38;95924.44;;;10.74;100.00
8298;BME280;4187;42.778;23.242;2023-02-28T09:56:09;95913.91;;;10.84;100.00
8298;BME280;4187;42.778;23.242;2023-02-28T09:58:41;95911.16;;;10.86;100.00
8298;BME280;4187;42.778;23.242;2023-02-28T10:01:15;95909.22;;;10.88;100.00
8298;BME280;4187;42.778;23.242;2023-02-28T10:03:47;95900.53;;;10.97;100.00
8298;BME280;4187;42.778;23.242;2023-02-28T10:06:20;95909.06;;;11.10;100.00
8298;BME280;4187;42.778;23.242;2023-02-28T10:08:52;95892.69;;;11.16;100.00
8298;BME280;4187;42.778;23.242;2023-02-28T10:11:23;95893.22;;;11.19;100.00
8298;BME280;4187;42.778;23.242;2023-02-28T10:13:54;95887.81;;;11.21;100.00
8298;BME280;4187;42.778;23.242;2023-02-28T10:16:29;95863.88;;;11.13;100.00
8298;BME280;4187;42.778;23.242;2023-02-28T10:19:03;95889.03;;;11.17;100.00
8298;BME280;4187;42.778;23.242;2023-02-28T10:21:35;95887.13;;;11.19;100.00
8298;BME280;4187;42.778;23.242;2023-02-28T10:27:14;95871.38;;;11.08;100.00
8298;BME280;4187;42.778;23.242;2023-02-28T10:29:43;95881.69;;;11.11;100.00
8298;BME280;4187;42.778;23.242;2023-02-28T10:32:14;95876.81;;;11.16;100.00
8298;BME280;4187;42.778;23.242;2023-02-28T10:34:49;95865.69;;;11.22;100.00
8298;BME280;4187;42.778;23.242;2023-02-28T10:37:19;95861.84;;;11.26;100.00
8298;BME280;4187;42.778;23.242;2023-02-28T10:39:46;95871.00;;;11.71;100.00
8298;BME280;4187;42.778;23.242;2023-02-28T10:42:24;95869.75;;;11.75;100.00
8298;BME280;4187;42.778;23.242;2023-02-28T10:45:14;95858.91;;;11.78;100.00
8298;BME280;4187;42.778;23.242;2023-02-28T10:47:51;95847.50;;;11.78;100.00
8298;BME280;4187;42.778;23.242;2023-02-28T10:50:39;95855.00;;;11.82;100.00
8298;BME280;4187;42.778;23.242;2023-02-28T10:53:22;95843.53;;;11.63;100.00
8298;BME280;4187;42.778;23.242;2023-02-28T10:55:56;95844.16;;;11.85;100.00
8298;BME280;4187;42.778;23.242;2023-02-28T10:58:26;95839.97;;;11.92;100.00
8298;BME280;4187;42.778;23.242;2023-02-28T11:00:54;95850.28;;;11.86;100.00
8298;BME280;4187;42.778;23.242;2023-02-28T11:03:29;95845.25;;;11.92;100.00
8298;BME280;4187;42.778;23.242;2023-02-28T11:05:57;95838.31;;;12.01;100.00
8298;BME280;4187;42.778;23.242;2023-02-28T11:08:26;95828.97;;;12.16;100.00
8298;BME280;4187;42.778;23.242;2023-02-28T11:10:58;95837.16;;;12.32;100.00
8298;BME280;4187;42.778;23.242;2023-02-28T11:13:28;95833.13;;;12.38;100.00
8298;BME280;4187;42.778;23.242;2023-02-28T11:15:59;95831.47;;;12.27;100.00
8298;BME280;4187;42.778;23.242;2023-02-28T11:18:29;95832.19;;;12.66;100.00
8298;BME280;4187;42.778;23.242;2023-02-28T11:20:58;95819.56;;;12.50;100.00
8298;BME280;4187;42.778;23.242;2023-02-28T11:23:30;95822.53;;;12.38;100.00
8298;BME280;4187;42.778;23.242;2023-02-28T11:26:01;95818.38;;;12.35;100.00
8298;BME280;4187;42.778;23.242;2023-02-28T11:28:31;95821.81;;;12.36;100.00
8298;BME280;4187;42.778;23.242;2023-02-28T11:31:04;95825.31;;;12.36;100.00
8298;BME280;4187;42.778;23.242;2023-02-28T11:33:32;95806.94;;;12.25;100.00
8298;BME280;4187;42.778;23.242;2023-02-28T11:36:11;95826.31;;;12.35;100.00
8298;BME280;4187;42.778;23.242;2023-02-28T11:38:40;95810.59;;;12.24;100.00
8298;BME280;4187;42.778;23.242;2023-02-28T11:41:24;95785.25;;;12.12;100.00
8298;BME280;4187;42.778;23.242;2023-02-28T11:44:09;95809.00;;;12.41;100.00
8298;BME280;4187;42.778;23.242;2023-02-28T11:46:48;95810.03;;;12.21;100.00
8298;BME280;4187;42.778;23.242;2023-02-28T11:49:27;95816.97;;;12.31;100.00
8298;BME280;4187;42.778;23.242;2023-02-28T11:52:00;95817.94;;;12.30;100.00
8298;BME280;4187;42.778;23.242;2023-02-28T11:54:59;95811.25;;;12.36;100.00
8298;BME280;4187;42.778;23.242;2023-02-28T11:57:35;95812.47;;;12.51;100.00
8298;BME280;4187;42.778;23.242;2023-02-28T12:00:15;95812.47;;;12.51;100.00
8298;BME280;4187;42.778;23.242;2023-02-28T12:03:00;95805.22;;;12.53;100.00
8298;BME280;4187;42.778;23.242;2023-02-28T12:05:34;95804.53;;;12.51;100.00
8298;BME280;4187;42.778;23.242;2023-02-28T12:08:18;95800.88;;;12.52;100.00
8298;BME280;4187;42.778;23.242;2023-02-28T12:10:59;95807.84;;;12.53;100.00
8298;BME280;4187;42.778;23.242;2023-02-28T12:13:36;95782.97;;;12.36;100.00
8298;BME280;4187;42.778;23.242;2023-02-28T12:16:18;95813.31;;;12.51;100.00
8298;BME280;4187;42.778;23.242;2023-02-28T12:19:05;95810.34;;;12.54;100.00
8298;BME280;4187;42.778;23.242;2023-02-28T12:21:47;95802.28;;;12.56;100.00
8298;BME280;4187;42.778;23.242;2023-02-28T12:24:37;95793.66;;;12.54;100.00
8298;BME280;4187;42.778;23.242;2023-02-28T12:27:10;95799.88;;;12.63;100.00
8298;BME280;4187;42.778;23.242;2023-02-28T12:29:46;95796.53;;;12.60;100.00
8298;BME280;4187;42.778;23.242;2023-02-28T12:32:18;95780.16;;;12.47;100.00
8298;BME280;4187;42.778;23.242;2023-02-28T12:34:49;95807.31;;;12.49;100.00
8298;BME280;4187;42.778;23.242;2023-02-28T12:37:24;95795.34;;;12.45;100.00
8298;BME280;4187;42.778;23.242;2023-02-28T12:39:58;95785.28;;;12.49;100.00
8298;BME280;4187;42.778;23.242;2023-02-28T12:42:32;95798.69;;;12.47;100.00
8298;BME280;4187;42.778;23.242;2023-02-28T12:45:02;95787.06;;;12.58;100.00
8298;BME280;4187;42.778;23.242;2023-02-28T12:47:32;95785.78;;;12.72;100.00
8298;BME280;4187;42.778;23.242;2023-02-28T12:50:02;95788.72;;;12.69;100.00
8298;BME280;4187;42.778;23.242;2023-02-28T12:52:35;95787.75;;;12.70;100.00
8298;BME280;4187;42.778;23.242;2023-02-28T12:55:08;95786.22;;;12.67;100.00
8298;BME280;4187;42.778;23.242;2023-02-28T12:57:43;95759.91;;;12.56;100.00
8298;BME280;4187;42.778;23.242;2023-02-28T13:00:16;95788.41;;;12.72;100.00
8298;BME280;4187;42.778;23.242;2023-02-28T13:06:08;95787.06;;;12.68;100.00
8298;BME280;4187;42.778;23.242;2023-02-28T13:09:02;95781.34;;;12.63;100.00
8298;BME280;4187;42.778;23.242;2023-02-28T13:11:32;95779.41;;;12.65;100.00
8298;BME280;4187;42.778;23.242;2023-02-28T13:14:05;95768.59;;;12.39;100.00
8298;BME280;4187;42.778;23.242;2023-02-28T13:16:56;95752.59;;;12.31;100.00
8298;BME280;4187;42.778;23.242;2023-02-28T13:19:24;95764.31;;;12.38;100.00
8298;BME280;4187;42.778;23.242;2023-02-28T13:21:52;95779.91;;;12.31;100.00
8298;BME280;4187;42.778;23.242;2023-02-28T13:24:45;95771.44;;;12.18;100.00
8298;BME280;4187;42.778;23.242;2023-02-28T13:27:34;95764.34;;;12.09;100.00
8298;BME280;4187;42.778;23.242;2023-02-28T13:33:24;95756.47;;;11.99;100.00
8298;BME280;4187;42.778;23.242;2023-02-28T13:36:07;95705.13;;;11.73;100.00
8298;BME280;4187;42.778;23.242;2023-02-28T13:38:40;95768.13;;;12.07;100.00